Montrose, AR (71658)

4:36 AM CDT on May 26, 2017 (GMT -0500)
McGehee-Wolfe Dr | | Change Station
Active Advisory: Flood Warning

Elev 171 ft 33.64 °N, 91.40 °W | Updated 33 seconds ago

Clear
Clear
65.9 °F
Feels Like 65.9 °F
N
0.0
Wind Variable Wind from South

Today
High -- | Low -- °F
--% Chance of Precip.
Yesterday
High -- | Low -- °F
Precip. -- in
Pressure 29.83 in
Visibility 10.0 miles
Clouds Clear
Dew Point 65 °F
Humidity 98%
Rainfall 0.00 in
Snow Depth Not available.
5:59 AM 8:06 PM
New Moon, 1% visible
METAR KLLQ 260853Z AUTO 18005KT 10SM CLR 19/17 A2984 RMK AO2 SLP101 T01940172 51009
Pressure 29.83 in
Visibility 10.0 miles
Clouds Clear
Dew Point 65 °F
Humidity 98%
Rainfall 0.00 in
Snow Depth Not available.
5:59 AM 8:06 PM
New Moon, 1% visible
METAR KLLQ 260853Z AUTO 18005KT 10SM CLR 19/17 A2984 RMK AO2 SLP101 T01940172 51009

Get Your Daily Forecast Email!

Thanks for signing up!

Be on the lookout for a verification email in your inbox.

You'll start receiving severe weather alerts in your inbox..

×

10-Day Weather Forecast

Almanac

Astronomy

May. 26, 2017 Rise Set
Actual Time
Civil Twilight
Nautical Twilight
Astronomical Twilight
Moon
Length of Visible Light
Length of Day
Tomorrow will be .
, % of the Moon is Illuminated

Today's Extremes

State Highs State Lows

Community

WunderPhotos

Category 6

Welcome to Category 6. This is the collective home for Weather Underground's featured writeups by Dr. Jeff Masters (right), Bob Henson (left), Chris Burt, and other regular contributors.

Nearby

Air Quality

  Air Quality AQ Index Pollutant
Not available.

Snow Depth

Station Depth Elevation

Earthquake Activity

City Distance Mag. Time & Date
Minimum magnitude displayed is 2.5.

Coastal Water Temperatures

Place Temperature

Stations

Nearby Weather Stations

Station Location Temp. Windchill Dew Point Humidity Wind Precip. Elev Updated Type
                   

Watches & Warnings

Flood Warning
Issued: 9:56 AM CDT May. 25, 2017 – National Weather Service

The Flood Warning continues for
the Ouachita River at Felsenthal lock and dam, Arkansas.
* Until Monday afternoon... or until the warning is cancelled.
* At 945 am Thursday the pool stage was 71.1 feet.
* Minor flooding is occurring and minor flooding is forecast.
* Flood pool stage is 70 feet.
* Forecast... the river will continue to fall to below flood stage by
Sunday morning.
* Impact... at 70.0 feet... minor lowland flooding of the Felsenthal
National Wildlife Refuge will continue for several days. Secondary
roadways along the river bottom will be inundated and closed.


Lat... Lon 3300 9210 3311 9217 3318 9212 3307 9211 3300 9205


Viii.